sensor_id;sensor_type;location;lat;lon;timestamp;temperature;humidity
48328;DHT22;34136;51.022;7.082;2023-08-07T00:01:58;13.60;1.00
48328;DHT22;34136;51.022;7.082;2023-08-07T00:04:44;13.60;1.00
48328;DHT22;34136;51.022;7.082;2023-08-07T00:07:31;13.60;1.00
48328;DHT22;34136;51.022;7.082;2023-08-07T00:10:17;13.60;1.00
48328;DHT22;34136;51.022;7.082;2023-08-07T00:13:03;13.50;1.00
48328;DHT22;34136;51.022;7.082;2023-08-07T00:15:49;13.50;1.00
48328;DHT22;34136;51.022;7.082;2023-08-07T00:18:35;13.40;1.00
48328;DHT22;34136;51.022;7.082;2023-08-07T00:21:22;13.50;1.00
48328;DHT22;34136;51.022;7.082;2023-08-07T00:24:08;13.40;1.00
48328;DHT22;34136;51.022;7.082;2023-08-07T00:26:54;13.50;1.00
48328;DHT22;34136;51.022;7.082;2023-08-07T00:29:40;13.40;1.00
48328;DHT22;34136;51.022;7.082;2023-08-07T00:32:27;13.30;1.00
48328;DHT22;34136;51.022;7.082;2023-08-07T00:35:13;13.30;1.00
48328;DHT22;34136;51.022;7.082;2023-08-07T00:37:59;13.30;1.00
48328;DHT22;34136;51.022;7.082;2023-08-07T00:40:45;13.30;1.00
48328;DHT22;34136;51.022;7.082;2023-08-07T00:43:31;13.30;1.00
48328;DHT22;34136;51.022;7.082;2023-08-07T00:46:19;13.30;1.00
48328;DHT22;34136;51.022;7.082;2023-08-07T00:49:08;13.20;1.00
48328;DHT22;34136;51.022;7.082;2023-08-07T00:51:56;13.30;1.00
48328;DHT22;34136;51.022;7.082;2023-08-07T00:54:42;13.30;1.00
48328;DHT22;34136;51.022;7.082;2023-08-07T00:57:29;13.20;1.00
48328;DHT22;34136;51.022;7.082;2023-08-07T01:00:16;13.20;1.00
48328;DHT22;34136;51.022;7.082;2023-08-07T01:03:09;13.20;1.00
48328;DHT22;34136;51.022;7.082;2023-08-07T01:05:57;13.10;1.00
48328;DHT22;34136;51.022;7.082;2023-08-07T01:08:44;13.20;1.00
48328;DHT22;34136;51.022;7.082;2023-08-07T01:11:48;13.20;1.00
48328;DHT22;34136;51.022;7.082;2023-08-07T01:14:55;13.10;1.00
48328;DHT22;34136;51.022;7.082;2023-08-07T01:17:43;13.20;1.00
48328;DHT22;34136;51.022;7.082;2023-08-07T01:20:35;13.10;1.00
48328;DHT22;34136;51.022;7.082;2023-08-07T01:23:26;13.10;1.00
48328;DHT22;34136;51.022;7.082;2023-08-07T01:26:18;13.10;1.00
48328;DHT22;34136;51.022;7.082;2023-08-07T01:29:29;13.10;1.00
48328;DHT22;34136;51.022;7.082;2023-08-07T01:32:18;13.10;1.00
48328;DHT22;34136;51.022;7.082;2023-08-07T01:35:07;13.10;1.00
48328;DHT22;34136;51.022;7.082;2023-08-07T01:37:58;13.00;1.00
48328;DHT22;34136;51.022;7.082;2023-08-07T01:40:46;13.00;1.00
48328;DHT22;34136;51.022;7.082;2023-08-07T01:43:34;13.00;1.00
48328;DHT22;34136;51.022;7.082;2023-08-07T01:50:06;13.00;1.00
48328;DHT22;34136;51.022;7.082;2023-08-07T01:52:53;13.00;1.00
48328;DHT22;34136;51.022;7.082;2023-08-07T01:55:39;13.00;1.00
48328;DHT22;34136;51.022;7.082;2023-08-07T01:58:25;12.90;1.00
48328;DHT22;34136;51.022;7.082;2023-08-07T02:01:12;13.00;1.00
48328;DHT22;34136;51.022;7.082;2023-08-07T02:03:58;13.00;1.00
48328;DHT22;34136;51.022;7.082;2023-08-07T02:06:45;13.00;1.00
48328;DHT22;34136;51.022;7.082;2023-08-07T02:09:32;13.10;1.00
48328;DHT22;34136;51.022;7.082;2023-08-07T02:12:19;13.10;1.00
48328;DHT22;34136;51.022;7.082;2023-08-07T02:15:08;13.10;1.00
48328;DHT22;34136;51.022;7.082;2023-08-07T02:17:55;13.10;1.00
48328;DHT22;34136;51.022;7.082;2023-08-07T02:20:44;13.00;1.00
48328;DHT22;34136;51.022;7.082;2023-08-07T02:23:30;13.00;1.00
48328;DHT22;34136;51.022;7.082;2023-08-07T02:26:16;13.10;1.00
48328;DHT22;34136;51.022;7.082;2023-08-07T02:29:02;13.00;1.00
48328;DHT22;34136;51.022;7.082;2023-08-07T02:31:51;13.00;1.00
48328;DHT22;34136;51.022;7.082;2023-08-07T02:34:38;13.00;1.00
48328;DHT22;34136;51.022;7.082;2023-08-07T02:37:25;12.90;1.00
48328;DHT22;34136;51.022;7.082;2023-08-07T02:40:11;12.90;1.00
48328;DHT22;34136;51.022;7.082;2023-08-07T02:42:58;12.80;1.00
48328;DHT22;34136;51.022;7.082;2023-08-07T02:45:44;12.80;1.00
48328;DHT22;34136;51.022;7.082;2023-08-07T02:48:30;12.80;1.00
48328;DHT22;34136;51.022;7.082;2023-08-07T02:51:16;12.80;1.00
48328;DHT22;34136;51.022;7.082;2023-08-07T02:54:06;12.90;1.00
48328;DHT22;34136;51.022;7.082;2023-08-07T02:56:52;12.80;1.00
48328;DHT22;34136;51.022;7.082;2023-08-07T02:59:38;12.80;1.00
48328;DHT22;34136;51.022;7.082;2023-08-07T03:02:25;12.80;1.00
48328;DHT22;34136;51.022;7.082;2023-08-07T03:05:11;12.90;1.00
48328;DHT22;34136;51.022;7.082;2023-08-07T03:08:05;12.80;1.00
48328;DHT22;34136;51.022;7.082;2023-08-07T03:10:52;12.80;1.00
48328;DHT22;34136;51.022;7.082;2023-08-07T03:13:39;12.90;1.00
48328;DHT22;34136;51.022;7.082;2023-08-07T03:16:25;12.90;1.00
48328;DHT22;34136;51.022;7.082;2023-08-07T03:19:17;12.80;1.00
48328;DHT22;34136;51.022;7.082;2023-08-07T03:22:09;12.90;1.00
48328;DHT22;34136;51.022;7.082;2023-08-07T03:24:55;12.90;1.00
48328;DHT22;34136;51.022;7.082;2023-08-07T03:27:42;12.90;1.00
48328;DHT22;34136;51.022;7.082;2023-08-07T03:30:33;12.90;1.00
48328;DHT22;34136;51.022;7.082;2023-08-07T03:33:21;12.90;1.00
48328;DHT22;34136;51.022;7.082;2023-08-07T03:36:13;12.90;1.00
48328;DHT22;34136;51.022;7.082;2023-08-07T03:39:00;12.90;1.00
48328;DHT22;34136;51.022;7.082;2023-08-07T03:41:49;12.90;1.00
48328;DHT22;34136;51.022;7.082;2023-08-07T03:44:37;12.90;1.00
48328;DHT22;34136;51.022;7.082;2023-08-07T03:47:23;12.90;1.00
48328;DHT22;34136;51.022;7.082;2023-08-07T03:50:13;12.90;1.00
48328;DHT22;34136;51.022;7.082;2023-08-07T03:53:00;13.00;1.00
48328;DHT22;34136;51.022;7.082;2023-08-07T03:55:51;13.00;1.00
48328;DHT22;34136;51.022;7.082;2023-08-07T03:58:38;13.10;1.00
48328;DHT22;34136;51.022;7.082;2023-08-07T04:01:25;13.00;1.00
48328;DHT22;34136;51.022;7.082;2023-08-07T04:04:11;13.00;1.00
48328;DHT22;34136;51.022;7.082;2023-08-07T04:06:59;13.10;1.00
48328;DHT22;34136;51.022;7.082;2023-08-07T04:09:45;13.00;1.00
48328;DHT22;34136;51.022;7.082;2023-08-07T04:12:47;13.00;1.00
48328;DHT22;34136;51.022;7.082;2023-08-07T04:16:09;12.90;1.00
48328;DHT22;34136;51.022;7.082;2023-08-07T04:18:55;12.90;1.00
48328;DHT22;34136;51.022;7.082;2023-08-07T04:21:50;12.90;1.00
48328;DHT22;34136;51.022;7.082;2023-08-07T04:24:44;12.90;1.00
48328;DHT22;34136;51.022;7.082;2023-08-07T04:27:30;12.90;1.00
48328;DHT22;34136;51.022;7.082;2023-08-07T04:30:16;12.90;1.00
48328;DHT22;34136;51.022;7.082;2023-08-07T04:33:02;12.90;1.00
48328;DHT22;34136;51.022;7.082;2023-08-07T04:35:49;12.90;1.00
48328;DHT22;34136;51.022;7.082;2023-08-07T04:38:35;12.90;1.00
48328;DHT22;34136;51.022;7.082;2023-08-07T04:41:21;12.90;1.00
48328;DHT22;34136;51.022;7.082;2023-08-07T04:44:12;12.90;1.00
48328;DHT22;34136;51.022;7.082;2023-08-07T04:46:59;12.80;1.00
48328;DHT22;34136;51.022;7.082;2023-08-07T04:49:45;12.80;1.00
48328;DHT22;34136;51.022;7.082;2023-08-07T04:52:31;12.90;1.00
48328;DHT22;34136;51.022;7.082;2023-08-07T04:55:21;13.00;1.00
48328;DHT22;34136;51.022;7.082;2023-08-07T04:58:07;12.90;1.00
48328;DHT22;34136;51.022;7.082;2023-08-07T05:00:56;13.00;1.00
48328;DHT22;34136;51.022;7.082;2023-08-07T05:03:43;13.10;1.00
48328;DHT22;34136;51.022;7.082;2023-08-07T05:06:29;13.10;1.00
48328;DHT22;34136;51.022;7.082;2023-08-07T05:09:16;13.10;1.00
48328;DHT22;34136;51.022;7.082;2023-08-07T05:12:04;13.10;1.00
48328;DHT22;34136;51.022;7.082;2023-08-07T05:14:54;13.00;1.00
48328;DHT22;34136;51.022;7.082;2023-08-07T05:17:50;13.00;1.00
48328;DHT22;34136;51.022;7.082;2023-08-07T05:20:37;13.10;1.00
48328;DHT22;34136;51.022;7.082;2023-08-07T05:23:24;13.10;1.00
48328;DHT22;34136;51.022;7.082;2023-08-07T05:26:19;13.00;1.00
48328;DHT22;34136;51.022;7.082;2023-08-07T05:29:06;13.10;1.00
48328;DHT22;34136;51.022;7.082;2023-08-07T05:31:52;13.10;1.00
48328;DHT22;34136;51.022;7.082;2023-08-07T05:34:39;13.10;1.00
48328;DHT22;34136;51.022;7.082;2023-08-07T05:37:27;13.10;1.00
48328;DHT22;34136;51.022;7.082;2023-08-07T05:40:17;13.10;1.00
48328;DHT22;34136;51.022;7.082;2023-08-07T05:43:05;13.10;1.00
48328;DHT22;34136;51.022;7.082;2023-08-07T05:46:01;13.10;1.00
48328;DHT22;34136;51.022;7.082;2023-08-07T05:48:47;13.20;1.00
48328;DHT22;34136;51.022;7.082;2023-08-07T05:51:33;13.20;1.00
48328;DHT22;34136;51.022;7.082;2023-08-07T05:54:20;13.20;1.00
48328;DHT22;34136;51.022;7.082;2023-08-07T05:57:06;13.20;1.00
48328;DHT22;34136;51.022;7.082;2023-08-07T06:00:00;13.20;1.00
48328;DHT22;34136;51.022;7.082;2023-08-07T06:03:15;13.20;1.00
48328;DHT22;34136;51.022;7.082;2023-08-07T06:06:01;13.10;1.00
48328;DHT22;34136;51.022;7.082;2023-08-07T06:08:49;13.10;1.00
48328;DHT22;34136;51.022;7.082;2023-08-07T06:11:47;13.10;1.00
48328;DHT22;34136;51.022;7.082;2023-08-07T06:14:33;13.10;1.00
48328;DHT22;34136;51.022;7.082;2023-08-07T06:17:25;13.10;1.00
48328;DHT22;34136;51.022;7.082;2023-08-07T06:20:12;13.10;1.00
48328;DHT22;34136;51.022;7.082;2023-08-07T06:23:04;13.20;1.00
48328;DHT22;34136;51.022;7.082;2023-08-07T06:25:51;13.10;1.00
48328;DHT22;34136;51.022;7.082;2023-08-07T06:28:37;13.20;1.00
48328;DHT22;34136;51.022;7.082;2023-08-07T06:31:23;13.00;1.00
48328;DHT22;34136;51.022;7.082;2023-08-07T06:34:11;13.10;1.00
48328;DHT22;34136;51.022;7.082;2023-08-07T06:37:00;13.00;1.00
48328;DHT22;34136;51.022;7.082;2023-08-07T06:39:46;13.00;1.00
48328;DHT22;34136;51.022;7.082;2023-08-07T06:42:37;12.90;1.00
48328;DHT22;34136;51.022;7.082;2023-08-07T06:45:26;13.00;1.00
48328;DHT22;34136;51.022;7.082;2023-08-07T06:48:12;13.00;1.00
48328;DHT22;34136;51.022;7.082;2023-08-07T06:50:59;13.00;1.00
48328;DHT22;34136;51.022;7.082;2023-08-07T06:53:52;13.00;1.00
48328;DHT22;34136;51.022;7.082;2023-08-07T06:56:38;13.00;1.00
48328;DHT22;34136;51.022;7.082;2023-08-07T06:59:24;13.10;1.00
48328;DHT22;34136;51.022;7.082;2023-08-07T07:02:12;13.10;1.00
48328;DHT22;34136;51.022;7.082;2023-08-07T07:05:00;13.10;1.00
48328;DHT22;34136;51.022;7.082;2023-08-07T07:07:47;13.00;1.00
48328;DHT22;34136;51.022;7.082;2023-08-07T07:10:33;13.00;1.00
48328;DHT22;34136;51.022;7.082;2023-08-07T07:13:24;13.00;1.00
48328;DHT22;34136;51.022;7.082;2023-08-07T07:16:10;13.00;1.00
48328;DHT22;34136;51.022;7.082;2023-08-07T07:18:56;13.00;1.00
48328;DHT22;34136;51.022;7.082;2023-08-07T07:21:43;13.00;1.00
48328;DHT22;34136;51.022;7.082;2023-08-07T07:24:29;12.80;1.00
48328;DHT22;34136;51.022;7.082;2023-08-07T07:27:17;12.80;1.00
48328;DHT22;34136;51.022;7.082;2023-08-07T07:30:06;12.80;1.00
48328;DHT22;34136;51.022;7.082;2023-08-07T07:32:55;12.80;1.00
48328;DHT22;34136;51.022;7.082;2023-08-07T07:35:41;12.80;1.00
48328;DHT22;34136;51.022;7.082;2023-08-07T07:38:28;12.90;1.00
48328;DHT22;34136;51.022;7.082;2023-08-07T07:41:15;13.00;1.00
48328;DHT22;34136;51.022;7.082;2023-08-07T07:44:14;12.90;1.00
48328;DHT22;34136;51.022;7.082;2023-08-07T07:47:00;12.90;1.00
48328;DHT22;34136;51.022;7.082;2023-08-07T07:49:47;13.00;1.00
48328;DHT22;34136;51.022;7.082;2023-08-07T07:52:34;13.00;1.00
48328;DHT22;34136;51.022;7.082;2023-08-07T07:55:24;13.10;1.00
48328;DHT22;34136;51.022;7.082;2023-08-07T07:58:18;13.00;1.00
48328;DHT22;34136;51.022;7.082;2023-08-07T08:01:04;13.00;1.00
48328;DHT22;34136;51.022;7.082;2023-08-07T08:03:50;13.00;1.00
48328;DHT22;34136;51.022;7.082;2023-08-07T08:06:37;13.00;1.00
48328;DHT22;34136;51.022;7.082;2023-08-07T08:09:23;13.10;1.00
48328;DHT22;34136;51.022;7.082;2023-08-07T08:12:10;13.00;1.00
48328;DHT22;34136;51.022;7.082;2023-08-07T08:14:57;13.10;1.00
48328;DHT22;34136;51.022;7.082;2023-08-07T08:17:49;13.10;1.00
48328;DHT22;34136;51.022;7.082;2023-08-07T08:20:47;13.10;1.00
48328;DHT22;34136;51.022;7.082;2023-08-07T08:23:39;13.10;1.00
48328;DHT22;34136;51.022;7.082;2023-08-07T08:26:25;13.20;1.00
48328;DHT22;34136;51.022;7.082;2023-08-07T08:29:14;13.20;1.00
48328;DHT22;34136;51.022;7.082;2023-08-07T08:32:03;13.20;1.00
48328;DHT22;34136;51.022;7.082;2023-08-07T08:34:50;13.20;1.00
48328;DHT22;34136;51.022;7.082;2023-08-07T08:37:36;13.20;1.00
48328;DHT22;34136;51.022;7.082;2023-08-07T08:40:23;13.20;1.00
48328;DHT22;34136;51.022;7.082;2023-08-07T08:43:12;13.30;1.00
48328;DHT22;34136;51.022;7.082;2023-08-07T08:46:00;13.30;1.00
48328;DHT22;34136;51.022;7.082;2023-08-07T08:48:50;13.30;1.00
48328;DHT22;34136;51.022;7.082;2023-08-07T08:51:40;13.30;1.00
48328;DHT22;34136;51.022;7.082;2023-08-07T08:54:27;13.30;1.00
48328;DHT22;34136;51.022;7.082;2023-08-07T08:57:14;13.30;1.00
48328;DHT22;34136;51.022;7.082;2023-08-07T09:00:00;13.30;1.00
48328;DHT22;34136;51.022;7.082;2023-08-07T09:02:48;13.40;1.00
48328;DHT22;34136;51.022;7.082;2023-08-07T09:05:35;13.50;1.00
48328;DHT22;34136;51.022;7.082;2023-08-07T09:08:23;13.50;1.00
48328;DHT22;34136;51.022;7.082;2023-08-07T09:11:15;13.50;1.00
48328;DHT22;34136;51.022;7.082;2023-08-07T09:14:03;13.50;1.00
48328;DHT22;34136;51.022;7.082;2023-08-07T09:16:49;13.60;1.00
48328;DHT22;34136;51.022;7.082;2023-08-07T09:19:36;13.50;1.00
48328;DHT22;34136;51.022;7.082;2023-08-07T09:22:22;13.50;1.00
48328;DHT22;34136;51.022;7.082;2023-08-07T09:25:09;13.50;1.00
48328;DHT22;34136;51.022;7.082;2023-08-07T09:27:55;13.50;1.00
48328;DHT22;34136;51.022;7.082;2023-08-07T09:30:42;13.50;1.00
48328;DHT22;34136;51.022;7.082;2023-08-07T09:33:35;13.50;1.00
48328;DHT22;34136;51.022;7.082;2023-08-07T09:36:25;13.60;1.00
48328;DHT22;34136;51.022;7.082;2023-08-07T09:39:11;13.60;1.00
48328;DHT22;34136;51.022;7.082;2023-08-07T09:41:57;13.70;1.00
48328;DHT22;34136;51.022;7.082;2023-08-07T09:44:44;13.90;1.00
48328;DHT22;34136;51.022;7.082;2023-08-07T09:47:30;14.10;1.00
48328;DHT22;34136;51.022;7.082;2023-08-07T09:55:47;14.60;1.00
48328;DHT22;34136;51.022;7.082;2023-08-07T09:58:34;14.80;1.00
48328;DHT22;34136;51.022;7.082;2023-08-07T10:01:20;14.90;1.00
48328;DHT22;34136;51.022;7.082;2023-08-07T10:04:07;14.90;1.00
48328;DHT22;34136;51.022;7.082;2023-08-07T10:06:57;15.00;1.00
48328;DHT22;34136;51.022;7.082;2023-08-07T10:09:45;15.10;1.00
48328;DHT22;34136;51.022;7.082;2023-08-07T10:12:33;15.20;1.00
48328;DHT22;34136;51.022;7.082;2023-08-07T10:15:20;15.30;1.00
48328;DHT22;34136;51.022;7.082;2023-08-07T10:18:10;15.40;1.00
48328;DHT22;34136;51.022;7.082;2023-08-07T10:20:57;15.50;1.00
48328;DHT22;34136;51.022;7.082;2023-08-07T10:23:52;15.60;1.00
48328;DHT22;34136;51.022;7.082;2023-08-07T10:26:46;15.50;1.00
48328;DHT22;34136;51.022;7.082;2023-08-07T10:29:36;15.50;1.00
48328;DHT22;34136;51.022;7.082;2023-08-07T10:32:30;15.70;1.00
48328;DHT22;34136;51.022;7.082;2023-08-07T10:35:36;15.70;1.00
48328;DHT22;34136;51.022;7.082;2023-08-07T10:38:25;15.80;1.00
48328;DHT22;34136;51.022;7.082;2023-08-07T10:41:13;15.80;1.00
48328;DHT22;34136;51.022;7.082;2023-08-07T10:44:03;16.10;1.00
48328;DHT22;34136;51.022;7.082;2023-08-07T10:46:52;16.20;1.00
48328;DHT22;34136;51.022;7.082;2023-08-07T10:49:41;16.40;1.00
48328;DHT22;34136;51.022;7.082;2023-08-07T10:52:30;16.40;1.00
48328;DHT22;34136;51.022;7.082;2023-08-07T10:55:18;16.50;1.00
48328;DHT22;34136;51.022;7.082;2023-08-07T10:58:05;16.80;1.00
48328;DHT22;34136;51.022;7.082;2023-08-07T11:01:15;17.10;1.00
48328;DHT22;34136;51.022;7.082;2023-08-07T11:04:00;17.30;1.40
48328;DHT22;34136;51.022;7.082;2023-08-07T11:06:52;17.30;99.90
48328;DHT22;34136;51.022;7.082;2023-08-07T11:09:39;17.80;99.90
48328;DHT22;34136;51.022;7.082;2023-08-07T11:12:28;18.10;99.90
48328;DHT22;34136;51.022;7.082;2023-08-07T11:15:16;18.00;99.90
48328;DHT22;34136;51.022;7.082;2023-08-07T11:18:04;17.90;99.90
48328;DHT22;34136;51.022;7.082;2023-08-07T11:20:55;17.70;99.90
48328;DHT22;34136;51.022;7.082;2023-08-07T11:23:43;17.60;99.90
48328;DHT22;34136;51.022;7.082;2023-08-07T11:26:30;17.50;99.90
48328;DHT22;34136;51.022;7.082;2023-08-07T11:29:20;17.70;99.90
48328;DHT22;34136;51.022;7.082;2023-08-07T11:32:09;17.90;99.90
48328;DHT22;34136;51.022;7.082;2023-08-07T11:34:56;18.10;99.90
48328;DHT22;34136;51.022;7.082;2023-08-07T11:37:47;18.20;99.90
48328;DHT22;34136;51.022;7.082;2023-08-07T11:40:37;18.40;99.90
48328;DHT22;34136;51.022;7.082;2023-08-07T11:43:27;18.40;99.90
48328;DHT22;34136;51.022;7.082;2023-08-07T11:46:22;18.30;99.90
48328;DHT22;34136;51.022;7.082;2023-08-07T11:49:09;18.30;99.90
48328;DHT22;34136;51.022;7.082;2023-08-07T11:51:57;18.20;99.90
48328;DHT22;34136;51.022;7.082;2023-08-07T11:54:47;18.20;99.90
48328;DHT22;34136;51.022;7.082;2023-08-07T11:57:40;18.10;99.90
48328;DHT22;34136;51.022;7.082;2023-08-07T12:00:30;18.20;99.90
48328;DHT22;34136;51.022;7.082;2023-08-07T12:03:32;18.50;99.90
48328;DHT22;34136;51.022;7.082;2023-08-07T12:06:25;18.70;99.90
48328;DHT22;34136;51.022;7.082;2023-08-07T12:09:16;18.80;99.90
48328;DHT22;34136;51.022;7.082;2023-08-07T12:12:04;19.10;99.90
48328;DHT22;34136;51.022;7.082;2023-08-07T12:14:55;19.30;99.90
48328;DHT22;34136;51.022;7.082;2023-08-07T12:17:42;19.50;99.90
48328;DHT22;34136;51.022;7.082;2023-08-07T12:20:29;19.60;99.90
48328;DHT22;34136;51.022;7.082;2023-08-07T12:23:17;19.70;99.90
48328;DHT22;34136;51.022;7.082;2023-08-07T12:26:06;19.60;99.90
48328;DHT22;34136;51.022;7.082;2023-08-07T12:28:53;19.40;99.90
48328;DHT22;34136;51.022;7.082;2023-08-07T12:31:40;19.40;99.90
48328;DHT22;34136;51.022;7.082;2023-08-07T12:34:26;19.40;99.90
48328;DHT22;34136;51.022;7.082;2023-08-07T12:37:13;19.40;99.90
48328;DHT22;34136;51.022;7.082;2023-08-07T12:40:00;19.40;99.90
48328;DHT22;34136;51.022;7.082;2023-08-07T12:42:46;19.60;99.90
48328;DHT22;34136;51.022;7.082;2023-08-07T12:45:33;19.80;99.90
48328;DHT22;34136;51.022;7.082;2023-08-07T12:48:20;20.00;99.90
48328;DHT22;34136;51.022;7.082;2023-08-07T12:51:07;19.90;99.90
48328;DHT22;34136;51.022;7.082;2023-08-07T12:53:54;19.80;99.90
48328;DHT22;34136;51.022;7.082;2023-08-07T12:56:40;19.60;99.90
48328;DHT22;34136;51.022;7.082;2023-08-07T12:59:27;19.30;99.90
48328;DHT22;34136;51.022;7.082;2023-08-07T13:02:13;19.30;99.90
48328;DHT22;34136;51.022;7.082;2023-08-07T13:05:00;19.40;99.90
48328;DHT22;34136;51.022;7.082;2023-08-07T13:07:47;19.50;99.90
48328;DHT22;34136;51.022;7.082;2023-08-07T13:10:34;19.60;99.90
48328;DHT22;34136;51.022;7.082;2023-08-07T13:13:21;19.80;99.90
48328;DHT22;34136;51.022;7.082;2023-08-07T13:16:09;20.10;99.90
48328;DHT22;34136;51.022;7.082;2023-08-07T13:18:56;20.40;99.90
48328;DHT22;34136;51.022;7.082;2023-08-07T13:21:42;20.50;99.90
48328;DHT22;34136;51.022;7.082;2023-08-07T13:24:31;20.30;99.90
48328;DHT22;34136;51.022;7.082;2023-08-07T13:27:18;20.50;99.90
48328;DHT22;34136;51.022;7.082;2023-08-07T13:30:05;20.40;99.90
48328;DHT22;34136;51.022;7.082;2023-08-07T13:32:52;20.60;99.90
48328;DHT22;34136;51.022;7.082;2023-08-07T13:35:38;20.60;99.90
48328;DHT22;34136;51.022;7.082;2023-08-07T13:38:24;20.60;99.90
48328;DHT22;34136;51.022;7.082;2023-08-07T13:41:11;20.50;99.90
48328;DHT22;34136;51.022;7.082;2023-08-07T13:43:57;20.50;99.90
48328;DHT22;34136;51.022;7.082;2023-08-07T13:46:44;20.50;99.90
48328;DHT22;34136;51.022;7.082;2023-08-07T13:49:30;20.80;99.90
48328;DHT22;34136;51.022;7.082;2023-08-07T13:52:16;20.90;99.90
48328;DHT22;34136;51.022;7.082;2023-08-07T13:55:03;20.60;99.90
48328;DHT22;34136;51.022;7.082;2023-08-07T13:57:49;20.50;99.90
48328;DHT22;34136;51.022;7.082;2023-08-07T14:00:36;20.60;99.90
48328;DHT22;34136;51.022;7.082;2023-08-07T14:03:22;20.70;99.90
48328;DHT22;34136;51.022;7.082;2023-08-07T14:06:08;20.80;99.90
48328;DHT22;34136;51.022;7.082;2023-08-07T14:08:54;20.60;99.90
48328;DHT22;34136;51.022;7.082;2023-08-07T14:11:41;20.50;99.90
48328;DHT22;34136;51.022;7.082;2023-08-07T14:14:27;20.60;99.90
48328;DHT22;34136;51.022;7.082;2023-08-07T14:17:13;20.80;99.90
48328;DHT22;34136;51.022;7.082;2023-08-07T14:20:00;20.70;99.90
48328;DHT22;34136;51.022;7.082;2023-08-07T14:22:46;20.60;99.90
48328;DHT22;34136;51.022;7.082;2023-08-07T14:25:33;20.50;99.90
48328;DHT22;34136;51.022;7.082;2023-08-07T14:28:19;20.20;99.90
48328;DHT22;34136;51.022;7.082;2023-08-07T14:31:07;20.20;99.90
48328;DHT22;34136;51.022;7.082;2023-08-07T14:33:54;20.20;99.90
48328;DHT22;34136;51.022;7.082;2023-08-07T14:36:40;19.90;99.90
48328;DHT22;34136;51.022;7.082;2023-08-07T14:39:26;19.90;99.90
48328;DHT22;34136;51.022;7.082;2023-08-07T14:42:13;19.80;99.90
48328;DHT22;34136;51.022;7.082;2023-08-07T14:44:59;19.90;99.90
48328;DHT22;34136;51.022;7.082;2023-08-07T14:47:46;20.00;99.90
48328;DHT22;34136;51.022;7.082;2023-08-07T14:50:32;19.90;99.90
48328;DHT22;34136;51.022;7.082;2023-08-07T14:53:18;19.90;99.90
48328;DHT22;34136;51.022;7.082;2023-08-07T14:56:04;20.00;99.90
48328;DHT22;34136;51.022;7.082;2023-08-07T14:58:50;20.10;99.90
48328;DHT22;34136;51.022;7.082;2023-08-07T15:01:37;20.20;99.90
48328;DHT22;34136;51.022;7.082;2023-08-07T15:04:23;20.10;99.90
48328;DHT22;34136;51.022;7.082;2023-08-07T15:07:09;20.20;99.90
48328;DHT22;34136;51.022;7.082;2023-08-07T15:09:55;20.30;99.90
48328;DHT22;34136;51.022;7.082;2023-08-07T15:12:41;20.20;99.90
48328;DHT22;34136;51.022;7.082;2023-08-07T15:15:28;20.10;99.90
48328;DHT22;34136;51.022;7.082;2023-08-07T15:18:14;20.00;99.90
48328;DHT22;34136;51.022;7.082;2023-08-07T15:21:00;20.10;99.90
48328;DHT22;34136;51.022;7.082;2023-08-07T15:23:47;19.90;99.90
48328;DHT22;34136;51.022;7.082;2023-08-07T15:26:33;19.90;99.90
48328;DHT22;34136;51.022;7.082;2023-08-07T15:29:20;19.70;99.90
48328;DHT22;34136;51.022;7.082;2023-08-07T15:32:06;19.90;99.90
48328;DHT22;34136;51.022;7.082;2023-08-07T15:34:53;20.00;99.90
48328;DHT22;34136;51.022;7.082;2023-08-07T15:37:39;19.80;99.90
48328;DHT22;34136;51.022;7.082;2023-08-07T15:40:25;19.70;99.90
48328;DHT22;34136;51.022;7.082;2023-08-07T15:43:12;19.60;99.90
48328;DHT22;34136;51.022;7.082;2023-08-07T15:45:58;19.60;99.90
48328;DHT22;34136;51.022;7.082;2023-08-07T15:48:44;19.80;99.90
48328;DHT22;34136;51.022;7.082;2023-08-07T15:51:31;20.00;99.90
48328;DHT22;34136;51.022;7.082;2023-08-07T15:54:18;20.10;99.90
48328;DHT22;34136;51.022;7.082;2023-08-07T15:57:05;19.80;99.90
48328;DHT22;34136;51.022;7.082;2023-08-07T15:59:51;19.80;99.90
48328;DHT22;34136;51.022;7.082;2023-08-07T16:02:37;19.80;99.90
48328;DHT22;34136;51.022;7.082;2023-08-07T16:05:24;19.70;99.90
48328;DHT22;34136;51.022;7.082;2023-08-07T16:08:10;19.80;99.90
48328;DHT22;34136;51.022;7.082;2023-08-07T16:10:56;19.80;99.90
48328;DHT22;34136;51.022;7.082;2023-08-07T16:13:42;19.80;99.90
48328;DHT22;34136;51.022;7.082;2023-08-07T16:16:28;19.60;99.90
48328;DHT22;34136;51.022;7.082;2023-08-07T16:19:14;19.80;99.90
48328;DHT22;34136;51.022;7.082;2023-08-07T16:22:01;19.70;99.90
48328;DHT22;34136;51.022;7.082;2023-08-07T16:24:47;19.70;99.90
48328;DHT22;34136;51.022;7.082;2023-08-07T16:27:34;19.60;99.90
48328;DHT22;34136;51.022;7.082;2023-08-07T16:30:20;19.50;99.90
48328;DHT22;34136;51.022;7.082;2023-08-07T16:33:06;19.50;99.90
48328;DHT22;34136;51.022;7.082;2023-08-07T16:35:52;19.30;99.90
48328;DHT22;34136;51.022;7.082;2023-08-07T16:38:38;19.40;99.90
48328;DHT22;34136;51.022;7.082;2023-08-07T16:41:24;19.60;99.90
48328;DHT22;34136;51.022;7.082;2023-08-07T16:44:10;19.70;99.90
48328;DHT22;34136;51.022;7.082;2023-08-07T16:46:57;19.70;99.90
48328;DHT22;34136;51.022;7.082;2023-08-07T16:49:43;19.70;99.90
48328;DHT22;34136;51.022;7.082;2023-08-07T16:52:30;19.70;99.90
48328;DHT22;34136;51.022;7.082;2023-08-07T16:55:16;19.60;99.90
48328;DHT22;34136;51.022;7.082;2023-08-07T16:58:02;19.60;99.90
48328;DHT22;34136;51.022;7.082;2023-08-07T17:00:48;19.30;99.90
48328;DHT22;34136;51.022;7.082;2023-08-07T17:03:34;19.20;99.90
48328;DHT22;34136;51.022;7.082;2023-08-07T17:06:21;19.40;99.90
48328;DHT22;34136;51.022;7.082;2023-08-07T17:09:07;19.40;99.90
48328;DHT22;34136;51.022;7.082;2023-08-07T17:11:53;19.40;99.90
48328;DHT22;34136;51.022;7.082;2023-08-07T17:14:39;19.30;99.90
48328;DHT22;34136;51.022;7.082;2023-08-07T17:17:25;19.50;99.90
48328;DHT22;34136;51.022;7.082;2023-08-07T17:20:12;19.40;99.90
48328;DHT22;34136;51.022;7.082;2023-08-07T17:22:58;19.50;99.90
48328;DHT22;34136;51.022;7.082;2023-08-07T17:25:44;19.30;99.90
48328;DHT22;34136;51.022;7.082;2023-08-07T17:28:31;19.10;99.90
48328;DHT22;34136;51.022;7.082;2023-08-07T17:31:17;19.10;99.90
48328;DHT22;34136;51.022;7.082;2023-08-07T17:34:03;19.20;99.90
48328;DHT22;34136;51.022;7.082;2023-08-07T17:36:50;19.20;99.90
48328;DHT22;34136;51.022;7.082;2023-08-07T17:39:36;19.30;99.90
48328;DHT22;34136;51.022;7.082;2023-08-07T17:42:23;19.40;99.90
48328;DHT22;34136;51.022;7.082;2023-08-07T17:45:09;19.30;99.90
48328;DHT22;34136;51.022;7.082;2023-08-07T17:51:12;19.10;99.90
48328;DHT22;34136;51.022;7.082;2023-08-07T17:53:59;19.00;99.90
48328;DHT22;34136;51.022;7.082;2023-08-07T17:56:56;19.10;99.90
48328;DHT22;34136;51.022;7.082;2023-08-07T17:59:46;19.20;99.90
48328;DHT22;34136;51.022;7.082;2023-08-07T18:02:39;19.10;99.90
48328;DHT22;34136;51.022;7.082;2023-08-07T18:05:28;19.00;99.90